sensor_id;sensor_type;location;lat;lon;timestamp;P1;durP1;ratioP1;P2;durP2;ratioP2
27163;SDS011;14685;50.618;7.024;2022-10-19T00:03:35;12.32;;;8.10;;
27163;SDS011;14685;50.618;7.024;2022-10-19T00:06:17;13.43;;;8.23;;
27163;SDS011;14685;50.618;7.024;2022-10-19T00:08:51;10.82;;;7.80;;
27163;SDS011;14685;50.618;7.024;2022-10-19T00:11:20;10.32;;;7.95;;
27163;SDS011;14685;50.618;7.024;2022-10-19T00:13:51;10.02;;;7.65;;
27163;SDS011;14685;50.618;7.024;2022-10-19T00:16:19;10.45;;;7.10;;
27163;SDS011;14685;50.618;7.024;2022-10-19T00:18:47;9.80;;;6.88;;
27163;SDS011;14685;50.618;7.024;2022-10-19T00:21:15;10.30;;;7.20;;
27163;SDS011;14685;50.618;7.024;2022-10-19T00:23:44;8.82;;;7.18;;
27163;SDS011;14685;50.618;7.024;2022-10-19T00:26:11;11.30;;;7.18;;
27163;SDS011;14685;50.618;7.024;2022-10-19T00:28:38;9.38;;;6.82;;
27163;SDS011;14685;50.618;7.024;2022-10-19T00:31:07;9.05;;;7.07;;
27163;SDS011;14685;50.618;7.024;2022-10-19T00:33:36;11.98;;;7.20;;
27163;SDS011;14685;50.618;7.024;2022-10-19T00:36:03;9.15;;;6.63;;
27163;SDS011;14685;50.618;7.024;2022-10-19T00:38:31;8.68;;;6.78;;
27163;SDS011;14685;50.618;7.024;2022-10-19T00:40:58;10.52;;;6.72;;
27163;SDS011;14685;50.618;7.024;2022-10-19T00:43:26;8.23;;;6.72;;
27163;SDS011;14685;50.618;7.024;2022-10-19T00:45:56;7.80;;;6.22;;
27163;SDS011;14685;50.618;7.024;2022-10-19T00:48:29;8.55;;;6.30;;
27163;SDS011;14685;50.618;7.024;2022-10-19T00:50:58;7.93;;;6.25;;
27163;SDS011;14685;50.618;7.024;2022-10-19T00:53:26;9.00;;;6.45;;
27163;SDS011;14685;50.618;7.024;2022-10-19T00:55:59;6.90;;;4.43;;
27163;SDS011;14685;50.618;7.024;2022-10-19T00:58:31;9.90;;;6.32;;
27163;SDS011;14685;50.618;7.024;2022-10-19T01:01:00;7.93;;;6.22;;
27163;SDS011;14685;50.618;7.024;2022-10-19T01:03:29;7.80;;;5.97;;
27163;SDS011;14685;50.618;7.024;2022-10-19T01:05:57;7.03;;;5.97;;
27163;SDS011;14685;50.618;7.024;2022-10-19T01:08:25;7.65;;;6.05;;
27163;SDS011;14685;50.618;7.024;2022-10-19T01:10:59;8.23;;;5.65;;
27163;SDS011;14685;50.618;7.024;2022-10-19T01:22:39;8.18;;;5.63;;
27163;SDS011;14685;50.618;7.024;2022-10-19T01:25:29;10.07;;;5.53;;
27163;SDS011;14685;50.618;7.024;2022-10-19T01:28:08;6.07;;;4.95;;
27163;SDS011;14685;50.618;7.024;2022-10-19T01:34:37;4.60;;;4.20;;
27163;SDS011;14685;50.618;7.024;2022-10-19T01:37:25;6.22;;;4.72;;
27163;SDS011;14685;50.618;7.024;2022-10-19T01:40:03;5.50;;;4.60;;
27163;SDS011;14685;50.618;7.024;2022-10-19T01:45:26;5.82;;;4.70;;
27163;SDS011;14685;50.618;7.024;2022-10-19T01:48:20;6.80;;;5.47;;
27163;SDS011;14685;50.618;7.024;2022-10-19T01:50:53;8.20;;;5.03;;
27163;SDS011;14685;50.618;7.024;2022-10-19T01:53:32;7.57;;;5.07;;
27163;SDS011;14685;50.618;7.024;2022-10-19T01:56:04;7.47;;;5.60;;
27163;SDS011;14685;50.618;7.024;2022-10-19T01:58:35;7.68;;;5.75;;
27163;SDS011;14685;50.618;7.024;2022-10-19T02:01:05;6.50;;;5.50;;
27163;SDS011;14685;50.618;7.024;2022-10-19T02:03:55;9.55;;;5.85;;
27163;SDS011;14685;50.618;7.024;2022-10-19T02:06:24;6.88;;;5.43;;
27163;SDS011;14685;50.618;7.024;2022-10-19T02:08:53;7.35;;;5.82;;
27163;SDS011;14685;50.618;7.024;2022-10-19T02:11:20;5.93;;;5.40;;
27163;SDS011;14685;50.618;7.024;2022-10-19T02:13:51;10.43;;;5.88;;
27163;SDS011;14685;50.618;7.024;2022-10-19T02:16:25;10.85;;;5.47;;
27163;SDS011;14685;50.618;7.024;2022-10-19T02:18:56;10.95;;;5.97;;
27163;SDS011;14685;50.618;7.024;2022-10-19T02:21:24;13.07;;;7.18;;
27163;SDS011;14685;50.618;7.024;2022-10-19T02:23:52;22.98;;;8.45;;
27163;SDS011;14685;50.618;7.024;2022-10-19T02:26:20;19.13;;;8.30;;
27163;SDS011;14685;50.618;7.024;2022-10-19T02:28:47;24.85;;;10.23;;
27163;SDS011;14685;50.618;7.024;2022-10-19T02:31:30;28.00;;;10.48;;
27163;SDS011;14685;50.618;7.024;2022-10-19T02:33:57;30.40;;;11.68;;
27163;SDS011;14685;50.618;7.024;2022-10-19T02:36:34;28.77;;;11.13;;
27163;SDS011;14685;50.618;7.024;2022-10-19T02:39:01;37.42;;;12.43;;
27163;SDS011;14685;50.618;7.024;2022-10-19T02:44:03;29.67;;;11.27;;
27163;SDS011;14685;50.618;7.024;2022-10-19T02:46:43;28.27;;;10.15;;
27163;SDS011;14685;50.618;7.024;2022-10-19T02:49:11;29.60;;;10.40;;
27163;SDS011;14685;50.618;7.024;2022-10-19T02:51:40;32.67;;;12.50;;
27163;SDS011;14685;50.618;7.024;2022-10-19T02:54:48;28.75;;;10.10;;
27163;SDS011;14685;50.618;7.024;2022-10-19T02:58:24;26.20;;;10.80;;
27163;SDS011;14685;50.618;7.024;2022-10-19T03:02:02;29.70;;;11.32;;
27163;SDS011;14685;50.618;7.024;2022-10-19T03:04:43;38.63;;;13.38;;
27163;SDS011;14685;50.618;7.024;2022-10-19T03:07:30;27.30;;;11.20;;
27163;SDS011;14685;50.618;7.024;2022-10-19T03:09:58;24.77;;;9.20;;
27163;SDS011;14685;50.618;7.024;2022-10-19T03:12:25;29.63;;;13.10;;
27163;SDS011;14685;50.618;7.024;2022-10-19T03:14:52;40.47;;;14.27;;
27163;SDS011;14685;50.618;7.024;2022-10-19T03:17:20;35.60;;;14.55;;
27163;SDS011;14685;50.618;7.024;2022-10-19T03:19:47;31.60;;;15.02;;
27163;SDS011;14685;50.618;7.024;2022-10-19T03:22:13;31.00;;;13.45;;
27163;SDS011;14685;50.618;7.024;2022-10-19T03:24:40;29.75;;;14.40;;
27163;SDS011;14685;50.618;7.024;2022-10-19T03:27:07;34.35;;;16.77;;
27163;SDS011;14685;50.618;7.024;2022-10-19T03:29:35;34.28;;;16.90;;
27163;SDS011;14685;50.618;7.024;2022-10-19T03:32:02;33.08;;;16.73;;
27163;SDS011;14685;50.618;7.024;2022-10-19T03:34:28;34.47;;;17.13;;
27163;SDS011;14685;50.618;7.024;2022-10-19T03:36:55;30.60;;;17.60;;
27163;SDS011;14685;50.618;7.024;2022-10-19T03:39:24;32.90;;;17.35;;
27163;SDS011;14685;50.618;7.024;2022-10-19T03:41:51;27.42;;;15.98;;
27163;SDS011;14685;50.618;7.024;2022-10-19T03:44:18;28.05;;;16.30;;
27163;SDS011;14685;50.618;7.024;2022-10-19T03:46:45;30.95;;;16.88;;
27163;SDS011;14685;50.618;7.024;2022-10-19T03:49:13;29.08;;;16.88;;
27163;SDS011;14685;50.618;7.024;2022-10-19T03:51:40;27.33;;;15.90;;
27163;SDS011;14685;50.618;7.024;2022-10-19T03:54:10;28.67;;;15.77;;
27163;SDS011;14685;50.618;7.024;2022-10-19T03:56:40;34.55;;;16.45;;
27163;SDS011;14685;50.618;7.024;2022-10-19T03:59:09;32.95;;;17.48;;
27163;SDS011;14685;50.618;7.024;2022-10-19T04:01:38;31.17;;;16.42;;
27163;SDS011;14685;50.618;7.024;2022-10-19T04:04:25;37.88;;;16.77;;
27163;SDS011;14685;50.618;7.024;2022-10-19T04:06:52;31.92;;;16.38;;
27163;SDS011;14685;50.618;7.024;2022-10-19T04:09:20;35.55;;;18.48;;
27163;SDS011;14685;50.618;7.024;2022-10-19T04:11:47;30.88;;;16.80;;
27163;SDS011;14685;50.618;7.024;2022-10-19T04:14:16;31.42;;;16.23;;
27163;SDS011;14685;50.618;7.024;2022-10-19T04:16:58;18.43;;;12.50;;
27163;SDS011;14685;50.618;7.024;2022-10-19T04:19:28;25.42;;;16.10;;
27163;SDS011;14685;50.618;7.024;2022-10-19T04:21:57;30.75;;;16.88;;
27163;SDS011;14685;50.618;7.024;2022-10-19T04:24:24;28.25;;;18.67;;
27163;SDS011;14685;50.618;7.024;2022-10-19T04:26:53;24.75;;;17.23;;
27163;SDS011;14685;50.618;7.024;2022-10-19T04:29:22;23.73;;;15.73;;
27163;SDS011;14685;50.618;7.024;2022-10-19T04:31:55;24.27;;;16.65;;
27163;SDS011;14685;50.618;7.024;2022-10-19T04:34:22;30.50;;;17.88;;
27163;SDS011;14685;50.618;7.024;2022-10-19T04:36:49;26.02;;;17.10;;
27163;SDS011;14685;50.618;7.024;2022-10-19T04:39:17;25.70;;;16.27;;
27163;SDS011;14685;50.618;7.024;2022-10-19T04:41:44;25.98;;;17.80;;
27163;SDS011;14685;50.618;7.024;2022-10-19T04:44:11;28.35;;;17.55;;
27163;SDS011;14685;50.618;7.024;2022-10-19T04:46:38;27.88;;;15.65;;
27163;SDS011;14685;50.618;7.024;2022-10-19T04:49:05;29.10;;;16.52;;
27163;SDS011;14685;50.618;7.024;2022-10-19T04:51:34;29.92;;;13.80;;
27163;SDS011;14685;50.618;7.024;2022-10-19T04:54:01;20.25;;;13.70;;
27163;SDS011;14685;50.618;7.024;2022-10-19T04:56:29;18.42;;;12.98;;
27163;SDS011;14685;50.618;7.024;2022-10-19T04:58:58;20.73;;;13.45;;
27163;SDS011;14685;50.618;7.024;2022-10-19T05:01:27;42.78;;;13.30;;
27163;SDS011;14685;50.618;7.024;2022-10-19T05:03:55;39.22;;;13.40;;
27163;SDS011;14685;50.618;7.024;2022-10-19T05:06:23;24.70;;;14.30;;
27163;SDS011;14685;50.618;7.024;2022-10-19T05:08:51;24.38;;;12.95;;
27163;SDS011;14685;50.618;7.024;2022-10-19T05:11:19;18.77;;;12.35;;
27163;SDS011;14685;50.618;7.024;2022-10-19T05:13:46;21.27;;;13.35;;
27163;SDS011;14685;50.618;7.024;2022-10-19T05:16:15;17.17;;;11.05;;
27163;SDS011;14685;50.618;7.024;2022-10-19T05:18:49;18.73;;;12.15;;
27163;SDS011;14685;50.618;7.024;2022-10-19T05:21:18;24.95;;;8.82;;
27163;SDS011;14685;50.618;7.024;2022-10-19T05:23:49;14.95;;;9.80;;
27163;SDS011;14685;50.618;7.024;2022-10-19T05:26:18;16.65;;;11.43;;
27163;SDS011;14685;50.618;7.024;2022-10-19T05:28:52;18.02;;;11.50;;
27163;SDS011;14685;50.618;7.024;2022-10-19T05:31:23;35.83;;;10.55;;
27163;SDS011;14685;50.618;7.024;2022-10-19T05:33:53;15.82;;;10.05;;
27163;SDS011;14685;50.618;7.024;2022-10-19T05:36:43;15.77;;;10.82;;
27163;SDS011;14685;50.618;7.024;2022-10-19T05:39:14;13.60;;;9.98;;
27163;SDS011;14685;50.618;7.024;2022-10-19T05:41:43;16.65;;;10.15;;
27163;SDS011;14685;50.618;7.024;2022-10-19T05:44:12;15.45;;;10.20;;
27163;SDS011;14685;50.618;7.024;2022-10-19T05:46:41;14.93;;;10.90;;
27163;SDS011;14685;50.618;7.024;2022-10-19T05:51:15;15.13;;;10.65;;
27163;SDS011;14685;50.618;7.024;2022-10-19T05:53:44;14.20;;;10.35;;
27163;SDS011;14685;50.618;7.024;2022-10-19T05:56:14;16.45;;;11.10;;
27163;SDS011;14685;50.618;7.024;2022-10-19T05:58:44;14.45;;;9.63;;
27163;SDS011;14685;50.618;7.024;2022-10-19T06:01:11;17.80;;;10.35;;
27163;SDS011;14685;50.618;7.024;2022-10-19T06:03:39;16.63;;;10.52;;
27163;SDS011;14685;50.618;7.024;2022-10-19T06:06:09;17.15;;;10.95;;
27163;SDS011;14685;50.618;7.024;2022-10-19T06:08:56;17.17;;;10.88;;
27163;SDS011;14685;50.618;7.024;2022-10-19T06:11:25;19.95;;;12.13;;
27163;SDS011;14685;50.618;7.024;2022-10-19T06:13:57;20.98;;;12.63;;
27163;SDS011;14685;50.618;7.024;2022-10-19T06:16:25;22.88;;;13.60;;
27163;SDS011;14685;50.618;7.024;2022-10-19T06:18:55;21.23;;;12.25;;
27163;SDS011;14685;50.618;7.024;2022-10-19T06:21:24;20.92;;;12.55;;
27163;SDS011;14685;50.618;7.024;2022-10-19T06:24:00;23.48;;;11.73;;
27163;SDS011;14685;50.618;7.024;2022-10-19T06:26:30;38.55;;;12.60;;
27163;SDS011;14685;50.618;7.024;2022-10-19T06:28:59;24.20;;;14.45;;
27163;SDS011;14685;50.618;7.024;2022-10-19T06:31:27;24.95;;;13.88;;
27163;SDS011;14685;50.618;7.024;2022-10-19T06:33:54;28.55;;;14.75;;
27163;SDS011;14685;50.618;7.024;2022-10-19T06:36:22;57.22;;;17.30;;
27163;SDS011;14685;50.618;7.024;2022-10-19T06:38:51;32.47;;;16.85;;
27163;SDS011;14685;50.618;7.024;2022-10-19T06:41:22;32.83;;;18.13;;
27163;SDS011;14685;50.618;7.024;2022-10-19T06:43:50;36.53;;;20.83;;
27163;SDS011;14685;50.618;7.024;2022-10-19T06:46:20;33.85;;;19.13;;
27163;SDS011;14685;50.618;7.024;2022-10-19T06:48:49;33.97;;;18.42;;
27163;SDS011;14685;50.618;7.024;2022-10-19T06:51:17;37.72;;;20.33;;
27163;SDS011;14685;50.618;7.024;2022-10-19T06:53:44;43.10;;;20.98;;
27163;SDS011;14685;50.618;7.024;2022-10-19T06:56:11;49.40;;;23.15;;
27163;SDS011;14685;50.618;7.024;2022-10-19T06:58:38;40.60;;;20.92;;
27163;SDS011;14685;50.618;7.024;2022-10-19T07:01:06;35.00;;;19.42;;
27163;SDS011;14685;50.618;7.024;2022-10-19T07:03:34;41.33;;;21.77;;
27163;SDS011;14685;50.618;7.024;2022-10-19T07:06:06;37.28;;;21.05;;
27163;SDS011;14685;50.618;7.024;2022-10-19T07:08:34;42.33;;;21.95;;
27163;SDS011;14685;50.618;7.024;2022-10-19T07:11:04;43.65;;;22.40;;
27163;SDS011;14685;50.618;7.024;2022-10-19T07:13:32;39.58;;;21.20;;
27163;SDS011;14685;50.618;7.024;2022-10-19T07:16:10;35.47;;;18.58;;
27163;SDS011;14685;50.618;7.024;2022-10-19T07:18:46;38.78;;;20.85;;
27163;SDS011;14685;50.618;7.024;2022-10-19T07:21:14;35.97;;;20.92;;
27163;SDS011;14685;50.618;7.024;2022-10-19T07:23:42;42.20;;;22.35;;
27163;SDS011;14685;50.618;7.024;2022-10-19T07:26:11;43.58;;;22.27;;
27163;SDS011;14685;50.618;7.024;2022-10-19T07:28:52;45.05;;;22.80;;
27163;SDS011;14685;50.618;7.024;2022-10-19T07:31:21;48.65;;;24.67;;
27163;SDS011;14685;50.618;7.024;2022-10-19T07:33:54;44.13;;;23.25;;
27163;SDS011;14685;50.618;7.024;2022-10-19T07:38:51;39.72;;;21.10;;
27163;SDS011;14685;50.618;7.024;2022-10-19T07:41:19;39.88;;;21.88;;
27163;SDS011;14685;50.618;7.024;2022-10-19T07:43:47;44.42;;;22.35;;
27163;SDS011;14685;50.618;7.024;2022-10-19T07:46:17;43.53;;;22.48;;
27163;SDS011;14685;50.618;7.024;2022-10-19T07:48:49;42.75;;;22.45;;
27163;SDS011;14685;50.618;7.024;2022-10-19T07:51:16;41.00;;;21.85;;
27163;SDS011;14685;50.618;7.024;2022-10-19T07:53:44;37.20;;;20.08;;
27163;SDS011;14685;50.618;7.024;2022-10-19T07:56:12;42.00;;;22.08;;
27163;SDS011;14685;50.618;7.024;2022-10-19T07:58:44;38.53;;;19.98;;
27163;SDS011;14685;50.618;7.024;2022-10-19T08:01:13;42.00;;;21.60;;
27163;SDS011;14685;50.618;7.024;2022-10-19T08:03:42;39.25;;;20.40;;
27163;SDS011;14685;50.618;7.024;2022-10-19T08:06:29;36.75;;;20.95;;
27163;SDS011;14685;50.618;7.024;2022-10-19T08:08:56;35.30;;;18.50;;
27163;SDS011;14685;50.618;7.024;2022-10-19T08:11:27;37.78;;;20.73;;
27163;SDS011;14685;50.618;7.024;2022-10-19T08:13:56;42.17;;;20.88;;
27163;SDS011;14685;50.618;7.024;2022-10-19T08:16:33;40.83;;;21.08;;
27163;SDS011;14685;50.618;7.024;2022-10-19T08:21:38;34.13;;;18.20;;
27163;SDS011;14685;50.618;7.024;2022-10-19T08:24:07;39.05;;;20.15;;
27163;SDS011;14685;50.618;7.024;2022-10-19T08:26:34;32.35;;;18.45;;
27163;SDS011;14685;50.618;7.024;2022-10-19T08:31:39;31.33;;;18.35;;
27163;SDS011;14685;50.618;7.024;2022-10-19T08:34:07;33.58;;;18.92;;
27163;SDS011;14685;50.618;7.024;2022-10-19T08:36:34;38.75;;;18.38;;
27163;SDS011;14685;50.618;7.024;2022-10-19T08:39:03;27.55;;;17.35;;
27163;SDS011;14685;50.618;7.024;2022-10-19T08:47:18;32.25;;;17.52;;
27163;SDS011;14685;50.618;7.024;2022-10-19T08:50:18;32.10;;;17.73;;
27163;SDS011;14685;50.618;7.024;2022-10-19T08:52:59;32.60;;;17.83;;
27163;SDS011;14685;50.618;7.024;2022-10-19T09:01:47;28.13;;;14.27;;
27163;SDS011;14685;50.618;7.024;2022-10-19T09:04:21;28.05;;;15.80;;
27163;SDS011;14685;50.618;7.024;2022-10-19T09:07:01;31.75;;;17.85;;
27163;SDS011;14685;50.618;7.024;2022-10-19T09:12:59;29.42;;;17.30;;
27163;SDS011;14685;50.618;7.024;2022-10-19T09:18:13;21.27;;;14.70;;
27163;SDS011;14685;50.618;7.024;2022-10-19T09:21:08;28.92;;;16.02;;
27163;SDS011;14685;50.618;7.024;2022-10-19T09:23:46;30.10;;;16.15;;
27163;SDS011;14685;50.618;7.024;2022-10-19T09:26:34;28.58;;;15.63;;
27163;SDS011;14685;50.618;7.024;2022-10-19T09:29:07;25.27;;;15.57;;
27163;SDS011;14685;50.618;7.024;2022-10-19T09:32:12;27.85;;;15.02;;
27163;SDS011;14685;50.618;7.024;2022-10-19T09:34:47;26.98;;;15.80;;
27163;SDS011;14685;50.618;7.024;2022-10-19T09:37:17;28.88;;;15.45;;
27163;SDS011;14685;50.618;7.024;2022-10-19T09:39:51;25.52;;;14.75;;
27163;SDS011;14685;50.618;7.024;2022-10-19T09:42:22;23.15;;;15.43;;
27163;SDS011;14685;50.618;7.024;2022-10-19T09:45:00;24.30;;;14.75;;
27163;SDS011;14685;50.618;7.024;2022-10-19T09:47:38;33.17;;;16.55;;
27163;SDS011;14685;50.618;7.024;2022-10-19T09:50:17;25.90;;;14.38;;
27163;SDS011;14685;50.618;7.024;2022-10-19T09:52:54;25.42;;;13.98;;
27163;SDS011;14685;50.618;7.024;2022-10-19T09:55:40;21.90;;;14.70;;
27163;SDS011;14685;50.618;7.024;2022-10-19T10:00:40;28.55;;;14.95;;
27163;SDS011;14685;50.618;7.024;2022-10-19T10:05:57;26.35;;;13.15;;
27163;SDS011;14685;50.618;7.024;2022-10-19T10:08:29;27.50;;;14.13;;
27163;SDS011;14685;50.618;7.024;2022-10-19T10:11:03;24.85;;;15.40;;
27163;SDS011;14685;50.618;7.024;2022-10-19T10:13:34;28.58;;;14.52;;
27163;SDS011;14685;50.618;7.024;2022-10-19T10:16:03;23.75;;;14.10;;
27163;SDS011;14685;50.618;7.024;2022-10-19T10:18:36;25.77;;;13.85;;
27163;SDS011;14685;50.618;7.024;2022-10-19T10:21:18;23.00;;;13.65;;
27163;SDS011;14685;50.618;7.024;2022-10-19T10:24:25;22.83;;;12.70;;
27163;SDS011;14685;50.618;7.024;2022-10-19T10:26:47;24.30;;;13.95;;
27163;SDS011;14685;50.618;7.024;2022-10-19T10:29:25;24.08;;;13.45;;
27163;SDS011;14685;50.618;7.024;2022-10-19T10:32:03;23.73;;;12.35;;
27163;SDS011;14685;50.618;7.024;2022-10-19T10:37:17;26.23;;;12.10;;
27163;SDS011;14685;50.618;7.024;2022-10-19T10:39:49;24.90;;;11.90;;
27163;SDS011;14685;50.618;7.024;2022-10-19T10:42:19;24.15;;;11.73;;
27163;SDS011;14685;50.618;7.024;2022-10-19T10:44:53;19.65;;;11.25;;
27163;SDS011;14685;50.618;7.024;2022-10-19T10:47:24;18.60;;;11.02;;
27163;SDS011;14685;50.618;7.024;2022-10-19T10:49:55;24.70;;;11.05;;
27163;SDS011;14685;50.618;7.024;2022-10-19T10:52:24;20.30;;;11.50;;
27163;SDS011;14685;50.618;7.024;2022-10-19T10:54:58;26.00;;;11.10;;
27163;SDS011;14685;50.618;7.024;2022-10-19T10:57:35;17.10;;;9.82;;
27163;SDS011;14685;50.618;7.024;2022-10-19T11:00:11;16.17;;;9.45;;
27163;SDS011;14685;50.618;7.024;2022-10-19T11:05:27;17.77;;;8.93;;
27163;SDS011;14685;50.618;7.024;2022-10-19T11:11:03;18.65;;;8.30;;
27163;SDS011;14685;50.618;7.024;2022-10-19T11:13:46;15.27;;;9.20;;
27163;SDS011;14685;50.618;7.024;2022-10-19T11:16:16;19.35;;;8.75;;
27163;SDS011;14685;50.618;7.024;2022-10-19T11:18:46;15.80;;;8.98;;
27163;SDS011;14685;50.618;7.024;2022-10-19T11:38:30;17.55;;;9.48;;
27163;SDS011;14685;50.618;7.024;2022-10-19T11:55:28;15.88;;;9.52;;
27163;SDS011;14685;50.618;7.024;2022-10-19T12:03:58;14.38;;;8.73;;
27163;SDS011;14685;50.618;7.024;2022-10-19T12:06:47;15.00;;;7.93;;
27163;SDS011;14685;50.618;7.024;2022-10-19T12:12:22;16.25;;;8.02;;
27163;SDS011;14685;50.618;7.024;2022-10-19T12:17:42;17.90;;;8.25;;
27163;SDS011;14685;50.618;7.024;2022-10-19T12:21:00;15.55;;;8.68;;
27163;SDS011;14685;50.618;7.024;2022-10-19T12:23:32;14.05;;;7.20;;
27163;SDS011;14685;50.618;7.024;2022-10-19T12:26:02;13.25;;;7.30;;
27163;SDS011;14685;50.618;7.024;2022-10-19T12:31:05;14.23;;;7.07;;
27163;SDS011;14685;50.618;7.024;2022-10-19T12:33:43;12.43;;;7.60;;
27163;SDS011;14685;50.618;7.024;2022-10-19T12:39:11;12.57;;;7.68;;
27163;SDS011;14685;50.618;7.024;2022-10-19T12:41:55;12.50;;;6.53;;
27163;SDS011;14685;50.618;7.024;2022-10-19T12:44:42;13.52;;;7.50;;
27163;SDS011;14685;50.618;7.024;2022-10-19T12:47:25;13.48;;;6.45;;
27163;SDS011;14685;50.618;7.024;2022-10-19T12:49:53;9.48;;;6.55;;
27163;SDS011;14685;50.618;7.024;2022-10-19T12:52:41;14.30;;;7.72;;
27163;SDS011;14685;50.618;7.024;2022-10-19T12:57:47;19.85;;;7.20;;
27163;SDS011;14685;50.618;7.024;2022-10-19T13:00:29;12.23;;;6.60;;
27163;SDS011;14685;50.618;7.024;2022-10-19T13:03:00;15.73;;;7.15;;
27163;SDS011;14685;50.618;7.024;2022-10-19T13:05:29;17.67;;;7.10;;
27163;SDS011;14685;50.618;7.024;2022-10-19T13:07:57;15.93;;;6.90;;
27163;SDS011;14685;50.618;7.024;2022-10-19T13:10:37;13.50;;;6.45;;
27163;SDS011;14685;50.618;7.024;2022-10-19T13:13:05;13.07;;;5.45;;
27163;SDS011;14685;50.618;7.024;2022-10-19T13:16:30;14.95;;;6.40;;
27163;SDS011;14685;50.618;7.024;2022-10-19T13:24:34;10.35;;;5.03;;
27163;SDS011;14685;50.618;7.024;2022-10-19T13:38:10;12.85;;;5.55;;
27163;SDS011;14685;50.618;7.024;2022-10-19T13:40:36;12.52;;;6.30;;
27163;SDS011;14685;50.618;7.024;2022-10-19T13:43:21;14.52;;;5.97;;
27163;SDS011;14685;50.618;7.024;2022-10-19T13:46:10;16.23;;;4.95;;
27163;SDS011;14685;50.618;7.024;2022-10-19T13:54:09;9.85;;;4.93;;
27163;SDS011;14685;50.618;7.024;2022-10-19T13:59:37;10.32;;;4.85;;
27163;SDS011;14685;50.618;7.024;2022-10-19T14:13:43;14.02;;;4.57;;
27163;SDS011;14685;50.618;7.024;2022-10-19T14:16:20;8.82;;;4.82;;
27163;SDS011;14685;50.618;7.024;2022-10-19T14:18:52;11.25;;;4.85;;
27163;SDS011;14685;50.618;7.024;2022-10-19T14:21:31;21.80;;;5.87;;
27163;SDS011;14685;50.618;7.024;2022-10-19T14:23:59;10.73;;;4.80;;
27163;SDS011;14685;50.618;7.024;2022-10-19T14:26:26;8.73;;;4.45;;
27163;SDS011;14685;50.618;7.024;2022-10-19T14:28:58;9.60;;;4.38;;
27163;SDS011;14685;50.618;7.024;2022-10-19T14:31:29;10.68;;;4.72;;
27163;SDS011;14685;50.618;7.024;2022-10-19T14:34:01;11.90;;;4.63;;
27163;SDS011;14685;50.618;7.024;2022-10-19T14:36:32;14.70;;;4.82;;
27163;SDS011;14685;50.618;7.024;2022-10-19T14:39:02;10.38;;;4.57;;
27163;SDS011;14685;50.618;7.024;2022-10-19T14:41:31;13.80;;;4.82;;
27163;SDS011;14685;50.618;7.024;2022-10-19T14:44:32;12.60;;;4.60;;
27163;SDS011;14685;50.618;7.024;2022-10-19T14:47:01;11.60;;;5.40;;
27163;SDS011;14685;50.618;7.024;2022-10-19T14:49:45;14.43;;;5.22;;
27163;SDS011;14685;50.618;7.024;2022-10-19T14:52:15;8.48;;;4.57;;
27163;SDS011;14685;50.618;7.024;2022-10-19T14:54:50;10.45;;;4.47;;
27163;SDS011;14685;50.618;7.024;2022-10-19T14:57:25;7.75;;;4.88;;
27163;SDS011;14685;50.618;7.024;2022-10-19T14:59:58;7.45;;;3.80;;
27163;SDS011;14685;50.618;7.024;2022-10-19T15:02:29;9.98;;;4.18;;
27163;SDS011;14685;50.618;7.024;2022-10-19T15:05:02;14.10;;;4.75;;
27163;SDS011;14685;50.618;7.024;2022-10-19T15:07:36;11.13;;;4.50;;
27163;SDS011;14685;50.618;7.024;2022-10-19T15:10:27;13.80;;;4.18;;
27163;SDS011;14685;50.618;7.024;2022-10-19T15:13:02;10.40;;;4.40;;
27163;SDS011;14685;50.618;7.024;2022-10-19T15:15:32;10.05;;;4.65;;
27163;SDS011;14685;50.618;7.024;2022-10-19T15:20:28;15.30;;;5.30;;
27163;SDS011;14685;50.618;7.024;2022-10-19T15:26:02;12.02;;;4.28;;
27163;SDS011;14685;50.618;7.024;2022-10-19T15:28:42;11.93;;;4.75;;
27163;SDS011;14685;50.618;7.024;2022-10-19T15:33:50;13.20;;;5.00;;
27163;SDS011;14685;50.618;7.024;2022-10-19T15:36:19;11.20;;;4.53;;
27163;SDS011;14685;50.618;7.024;2022-10-19T15:38:58;10.15;;;4.68;;
27163;SDS011;14685;50.618;7.024;2022-10-19T15:44:32;8.00;;;4.40;;
27163;SDS011;14685;50.618;7.024;2022-10-19T15:47:18;12.27;;;4.40;;
27163;SDS011;14685;50.618;7.024;2022-10-19T15:49:58;9.27;;;4.85;;
27163;SDS011;14685;50.618;7.024;2022-10-19T15:52:33;8.98;;;4.68;;
27163;SDS011;14685;50.618;7.024;2022-10-19T15:55:00;7.75;;;4.35;;
27163;SDS011;14685;50.618;7.024;2022-10-19T15:57:29;9.70;;;5.20;;
27163;SDS011;14685;50.618;7.024;2022-10-19T16:00:00;12.32;;;5.18;;
27163;SDS011;14685;50.618;7.024;2022-10-19T16:02:32;7.72;;;4.80;;
27163;SDS011;14685;50.618;7.024;2022-10-19T16:04:59;8.68;;;4.63;;
27163;SDS011;14685;50.618;7.024;2022-10-19T16:07:27;8.40;;;4.72;;
27163;SDS011;14685;50.618;7.024;2022-10-19T16:09:57;10.48;;;4.60;;
27163;SDS011;14685;50.618;7.024;2022-10-19T16:12:25;11.38;;;5.05;;
27163;SDS011;14685;50.618;7.024;2022-10-19T16:14:52;11.85;;;4.40;;
27163;SDS011;14685;50.618;7.024;2022-10-19T16:17:19;6.38;;;4.22;;
27163;SDS011;14685;50.618;7.024;2022-10-19T16:19:46;11.38;;;5.03;;
27163;SDS011;14685;50.618;7.024;2022-10-19T16:22:13;11.73;;;4.97;;
27163;SDS011;14685;50.618;7.024;2022-10-19T16:24:43;14.43;;;5.10;;
27163;SDS011;14685;50.618;7.024;2022-10-19T16:27:10;7.90;;;4.53;;
27163;SDS011;14685;50.618;7.024;2022-10-19T16:29:41;10.45;;;5.15;;
27163;SDS011;14685;50.618;7.024;2022-10-19T16:32:08;10.45;;;5.30;;
27163;SDS011;14685;50.618;7.024;2022-10-19T16:34:37;14.90;;;6.07;;
27163;SDS011;14685;50.618;7.024;2022-10-19T16:37:06;16.35;;;5.82;;
27163;SDS011;14685;50.618;7.024;2022-10-19T16:39:33;12.82;;;6.00;;
27163;SDS011;14685;50.618;7.024;2022-10-19T16:42:00;10.18;;;5.50;;
27163;SDS011;14685;50.618;7.024;2022-10-19T16:44:27;8.10;;;5.00;;
27163;SDS011;14685;50.618;7.024;2022-10-19T16:46:55;10.05;;;5.65;;
27163;SDS011;14685;50.618;7.024;2022-10-19T16:49:22;9.05;;;4.78;;
27163;SDS011;14685;50.618;7.024;2022-10-19T16:51:50;9.30;;;5.10;;
27163;SDS011;14685;50.618;7.024;2022-10-19T16:54:22;9.55;;;5.20;;
27163;SDS011;14685;50.618;7.024;2022-10-19T16:56:52;11.82;;;6.05;;
27163;SDS011;14685;50.618;7.024;2022-10-19T16:59:20;10.52;;;4.97;;
27163;SDS011;14685;50.618;7.024;2022-10-19T17:01:47;11.75;;;4.85;;
27163;SDS011;14685;50.618;7.024;2022-10-19T17:04:14;15.57;;;6.53;;
27163;SDS011;14685;50.618;7.024;2022-10-19T17:06:43;13.60;;;5.68;;
27163;SDS011;14685;50.618;7.024;2022-10-19T17:09:11;16.40;;;7.13;;
27163;SDS011;14685;50.618;7.024;2022-10-19T17:11:58;7.10;;;5.10;;
27163;SDS011;14685;50.618;7.024;2022-10-19T17:14:25;9.23;;;4.63;;
27163;SDS011;14685;50.618;7.024;2022-10-19T17:16:53;14.27;;;5.03;;
27163;SDS011;14685;50.618;7.024;2022-10-19T17:19:21;14.13;;;5.93;;
27163;SDS011;14685;50.618;7.024;2022-10-19T17:21:48;9.43;;;4.68;;
27163;SDS011;14685;50.618;7.024;2022-10-19T17:24:16;9.90;;;4.65;;
27163;SDS011;14685;50.618;7.024;2022-10-19T17:26:49;8.00;;;4.80;;
27163;SDS011;14685;50.618;7.024;2022-10-19T17:29:18;13.23;;;5.50;;
27163;SDS011;14685;50.618;7.024;2022-10-19T17:31:48;9.88;;;4.95;;
27163;SDS011;14685;50.618;7.024;2022-10-19T17:34:15;13.25;;;4.53;;
27163;SDS011;14685;50.618;7.024;2022-10-19T17:36:43;8.20;;;4.43;;
27163;SDS011;14685;50.618;7.024;2022-10-19T17:39:18;14.48;;;4.93;;
27163;SDS011;14685;50.618;7.024;2022-10-19T17:41:54;7.07;;;4.80;;
27163;SDS011;14685;50.618;7.024;2022-10-19T17:44:21;13.43;;;5.75;;